createdAt,value
2022-12-07T00:00:21.443Z,101137.16
2022-12-07T00:00:43.059Z,101138.91
2022-12-07T00:01:09.758Z,101144.19
2022-12-07T00:01:33.865Z,101137.03
2022-12-07T00:01:55.482Z,101137.00
2022-12-07T00:02:17.155Z,101140.50
2022-12-07T00:02:39.871Z,101142.25
2022-12-07T00:03:01.541Z,101137.84
2022-12-07T00:03:23.245Z,101141.31
2022-12-07T00:03:46.689Z,101140.41
2022-12-07T00:04:13.026Z,101133.28
2022-12-07T00:04:34.666Z,101136.00
2022-12-07T00:04:56.198Z,101142.19
2022-12-07T00:05:17.837Z,101136.91
2022-12-07T00:05:39.408Z,101140.44
2022-12-07T00:06:02.834Z,101130.75
2022-12-07T00:06:24.395Z,101126.31
2022-12-07T00:06:47.861Z,101136.88
2022-12-07T00:07:10.446Z,101128.88
2022-12-07T00:07:32.006Z,101128.00
2022-12-07T00:07:53.663Z,101129.72
2022-12-07T00:08:15.422Z,101129.72
2022-12-07T00:08:37.402Z,101125.41
2022-12-07T00:09:00.189Z,101134.16
2022-12-07T00:09:22.483Z,101128.03
2022-12-07T00:09:44.113Z,101129.81
2022-12-07T00:10:08.935Z,101130.81
2022-12-07T00:10:30.615Z,101138.66
2022-12-07T00:10:52.177Z,101122.81
2022-12-07T00:11:16.916Z,101107.00
2022-12-07T00:11:38.533Z,101131.53
2022-12-07T00:12:01.107Z,101125.31
2022-12-07T00:12:22.700Z,101129.72
2022-12-07T00:12:44.276Z,101129.66
2022-12-07T00:13:05.817Z,101128.78
2022-12-07T00:13:27.414Z,101126.19
2022-12-07T00:13:54.061Z,101126.25
2022-12-07T00:14:16.965Z,101129.84
2022-12-07T00:14:38.539Z,101119.38
2022-12-07T00:15:00.243Z,101138.72
2022-12-07T00:15:21.849Z,101131.69
2022-12-07T00:15:44.601Z,101126.38
2022-12-07T00:16:08.946Z,101136.19
2022-12-07T00:16:32.770Z,101130.16
2022-12-07T00:16:54.492Z,101138.84
2022-12-07T00:17:17.108Z,101137.06
2022-12-07T00:17:38.701Z,101122.16
2022-12-07T00:18:00.402Z,101134.41
2022-12-07T00:18:22.035Z,101133.53
2022-12-07T00:18:44.870Z,101138.16
2022-12-07T00:19:07.496Z,101141.53
2022-12-07T00:19:29.134Z,101145.00
2022-12-07T00:19:50.697Z,101136.19
2022-12-07T00:20:12.286Z,101132.66
2022-12-07T00:20:34.978Z,101137.88
2022-12-07T00:21:00.461Z,101129.94
2022-12-07T00:21:23.522Z,101136.91
2022-12-07T00:21:45.125Z,101133.34
2022-12-07T00:22:07.681Z,101125.34
2022-12-07T00:22:29.524Z,101136.00
2022-12-07T00:22:51.136Z,101141.22
2022-12-07T00:23:12.782Z,101123.56
2022-12-07T00:23:34.873Z,101129.72
2022-12-07T00:23:58.830Z,101126.13
2022-12-07T00:24:20.506Z,101126.19
2022-12-07T00:24:42.139Z,101126.19
2022-12-07T00:25:04.279Z,101130.63
2022-12-07T00:25:27.286Z,101129.72
2022-12-07T00:25:50.180Z,101119.19
2022-12-07T00:26:14.005Z,101122.75
2022-12-07T00:26:40.046Z,101131.59
2022-12-07T00:27:01.717Z,101125.41
2022-12-07T00:27:23.415Z,101126.31
2022-12-07T00:27:45.126Z,101129.84
2022-12-07T00:28:07.859Z,101124.53
2022-12-07T00:28:30.399Z,101123.63
2022-12-07T00:28:54.197Z,101128.03
2022-12-07T00:29:18.080Z,101115.72
2022-12-07T00:29:40.612Z,101122.75
2022-12-07T00:30:02.567Z,101121.03
2022-12-07T00:30:24.748Z,101124.94
2022-12-07T00:30:46.451Z,101124.94
2022-12-07T00:31:11.894Z,101112.53
2022-12-07T00:31:36.177Z,101117.84
2022-12-07T00:31:57.939Z,101121.28
2022-12-07T00:32:19.658Z,101122.16
2022-12-07T00:32:42.239Z,101115.16
2022-12-07T00:33:03.852Z,101121.25
2022-12-07T00:33:25.450Z,101118.63
2022-12-07T00:33:47.750Z,101109.00
2022-12-07T00:34:15.228Z,101112.28
2022-12-07T00:34:36.983Z,101116.69
2022-12-07T00:34:58.542Z,101121.22
2022-12-07T00:35:20.138Z,101114.09
2022-12-07T00:35:41.687Z,101120.31
2022-12-07T00:36:07.559Z,101124.72
2022-12-07T00:36:29.248Z,101122.03
2022-12-07T00:36:51.455Z,101120.22
2022-12-07T00:37:14.348Z,101116.75
2022-12-07T00:37:36.004Z,101107.00
2022-12-07T00:37:57.591Z,101102.59
2022-12-07T00:38:19.193Z,101114.91
2022-12-07T00:38:42.627Z,101119.31
2022-12-07T00:39:04.694Z,101104.34
2022-12-07T00:39:26.271Z,101111.31
2022-12-07T00:39:47.936Z,101118.38
2022-12-07T00:40:11.269Z,101114.91
2022-12-07T00:40:32.862Z,101110.50
2022-12-07T00:40:58.093Z,101118.44
2022-12-07T00:41:21.561Z,101122.78
2022-12-07T00:41:45.654Z,101115.72
2022-12-07T00:42:07.332Z,101115.72
2022-12-07T00:42:28.946Z,101118.38
2022-12-07T00:42:50.507Z,101108.72
2022-12-07T00:43:13.035Z,101118.28
2022-12-07T00:43:34.749Z,101113.78
2022-12-07T00:43:57.233Z,101119.06
2022-12-07T00:44:19.857Z,101105.00
2022-12-07T00:44:41.554Z,101108.50
2022-12-07T00:45:03.511Z,101111.19
2022-12-07T00:45:25.119Z,101112.09
2022-12-07T00:45:46.809Z,101112.09
2022-12-07T00:46:10.053Z,101113.00
2022-12-07T00:46:31.777Z,101115.66
2022-12-07T00:46:53.399Z,101109.44
2022-12-07T00:47:15.961Z,101113.88
2022-12-07T00:47:37.625Z,101110.59
2022-12-07T00:47:59.244Z,101111.41
2022-12-07T00:48:21.157Z,101103.53
2022-12-07T00:48:44.135Z,101113.97
2022-12-07T00:49:05.782Z,101102.50
2022-12-07T00:49:27.353Z,101107.75
2022-12-07T00:49:48.947Z,101111.28
2022-12-07T00:50:11.681Z,101111.31
2022-12-07T00:50:33.247Z,101100.72
2022-12-07T00:50:55.022Z,101102.41
2022-12-07T00:51:19.556Z,101107.69
2022-12-07T00:51:42.205Z,101108.56
2022-12-07T00:52:04.199Z,101105.94
2022-12-07T00:52:25.792Z,101114.72
2022-12-07T00:52:47.341Z,101112.94
2022-12-07T00:53:09.920Z,101109.44
2022-12-07T00:53:38.014Z,101106.78
2022-12-07T00:54:03.601Z,101105.91
2022-12-07T00:54:25.277Z,101105.84
2022-12-07T00:54:46.893Z,101104.06
2022-12-07T00:55:09.291Z,101112.88
2022-12-07T00:55:34.880Z,101105.84
2022-12-07T00:55:57.223Z,101108.50
2022-12-07T00:56:20.944Z,101105.91
2022-12-07T00:56:44.884Z,101106.78
2022-12-07T00:57:06.629Z,101097.91
2022-12-07T00:57:28.232Z,101103.09
2022-12-07T00:57:49.803Z,101108.41
2022-12-07T00:58:11.570Z,101098.75
2022-12-07T00:58:34.082Z,101103.09
2022-12-07T00:58:57.519Z,101102.19
2022-12-07T00:59:19.170Z,101109.28
2022-12-07T00:59:40.856Z,101103.06
2022-12-07T01:00:03.785Z,101104.78
2022-12-07T01:00:25.595Z,101110.94
2022-12-07T01:00:47.293Z,101111.84
2022-12-07T01:01:10.121Z,101103.91
2022-12-07T01:01:34.934Z,101108.28
2022-12-07T01:01:57.068Z,101110.94
2022-12-07T01:02:18.691Z,101107.34
2022-12-07T01:02:40.635Z,101089.06
2022-12-07T01:03:02.349Z,101110.06
2022-12-07T01:03:25.003Z,101105.66
2022-12-07T01:03:46.670Z,101108.38
2022-12-07T01:04:08.699Z,101108.38
2022-12-07T01:04:31.243Z,101103.09
2022-12-07T01:04:52.849Z,101103.91
2022-12-07T01:05:14.468Z,101104.84
2022-12-07T01:05:36.321Z,101104.88
2022-12-07T01:05:58.651Z,101107.53
2022-12-07T01:06:23.181Z,101097.91
2022-12-07T01:06:44.834Z,101106.66
2022-12-07T01:07:06.471Z,101103.97
2022-12-07T01:07:28.154Z,101106.63
2022-12-07T01:07:49.790Z,101101.34
2022-12-07T01:08:12.477Z,101096.06
2022-12-07T01:08:34.722Z,101106.56
2022-12-07T01:08:56.323Z,101104.97
2022-12-07T01:09:17.926Z,101103.25
2022-12-07T01:09:40.513Z,101105.03
2022-12-07T01:10:02.564Z,101102.38
2022-12-07T01:10:24.583Z,101103.19
2022-12-07T01:10:46.554Z,101106.69
2022-12-07T01:11:10.919Z,101111.91
2022-12-07T01:11:34.065Z,101111.91
2022-12-07T01:11:57.015Z,101113.66
2022-12-07T01:12:19.136Z,101107.50
2022-12-07T01:12:41.309Z,101109.28
2022-12-07T01:13:02.947Z,101118.97
2022-12-07T01:13:25.488Z,101113.59
2022-12-07T01:13:47.518Z,101102.19
2022-12-07T01:14:10.091Z,101105.72
2022-12-07T01:14:31.676Z,101112.66
2022-12-07T01:14:54.361Z,101114.41
2022-12-07T01:15:16.203Z,101113.53
2022-12-07T01:15:40.148Z,101103.09
2022-12-07T01:16:04.654Z,101116.25
2022-12-07T01:16:29.504Z,101108.28
2022-12-07T01:16:51.249Z,101111.84
2022-12-07T01:17:12.950Z,101104.78
2022-12-07T01:17:34.762Z,101110.97
2022-12-07T01:17:56.394Z,101107.53
2022-12-07T01:18:18.959Z,101101.41
2022-12-07T01:18:41.188Z,101102.31
2022-12-07T01:19:05.561Z,101098.94
2022-12-07T01:19:27.247Z,101106.72
2022-12-07T01:19:49.818Z,101114.56
2022-12-07T01:20:12.906Z,101105.75
2022-12-07T01:20:34.620Z,101110.09
2022-12-07T01:21:01.363Z,101113.59
2022-12-07T01:21:26.408Z,101116.25
2022-12-07T01:21:48.059Z,101113.56
2022-12-07T01:22:09.686Z,101116.34
2022-12-07T01:22:31.307Z,101118.25
2022-12-07T01:22:52.966Z,101113.94
2022-12-07T01:23:15.626Z,101107.69
2022-12-07T01:23:38.357Z,101115.59
2022-12-07T01:23:59.987Z,101111.13
2022-12-07T01:24:21.585Z,101114.66
2022-12-07T01:24:44.194Z,101114.69
2022-12-07T01:25:06.561Z,101110.31
2022-12-07T01:25:28.462Z,101108.47
2022-12-07T01:25:55.455Z,101122.44
2022-12-07T01:26:20.121Z,101106.72
2022-12-07T01:26:42.071Z,101120.66
2022-12-07T01:27:05.107Z,101123.22
2022-12-07T01:27:26.798Z,101119.78
2022-12-07T01:27:48.398Z,101116.19
2022-12-07T01:28:10.957Z,101111.75
2022-12-07T01:28:33.092Z,101112.66
2022-12-07T01:28:56.107Z,101122.34
2022-12-07T01:29:18.840Z,101115.28
2022-12-07T01:29:40.569Z,101112.66
2022-12-07T01:30:03.912Z,101117.06
2022-12-07T01:30:25.773Z,101119.69
2022-12-07T01:30:57.170Z,101112.63
2022-12-07T01:31:21.270Z,101116.19
2022-12-07T01:31:42.954Z,101112.63
2022-12-07T01:32:05.623Z,101094.38
2022-12-07T01:32:41.622Z,101117.06
2022-12-07T01:33:03.346Z,101114.50
2022-12-07T01:33:25.004Z,101113.69
2022-12-07T01:33:49.563Z,101108.31
2022-12-07T01:34:11.322Z,101108.28
2022-12-07T01:34:32.916Z,101119.69
2022-12-07T01:34:54.627Z,101117.91
2022-12-07T01:35:17.377Z,101106.50
2022-12-07T01:35:38.990Z,101111.66
2022-12-07T01:36:04.943Z,101111.66
2022-12-07T01:36:28.741Z,101109.91
2022-12-07T01:36:51.360Z,101115.19
2022-12-07T01:37:12.960Z,101111.66
2022-12-07T01:37:36.432Z,101110.78
2022-12-07T01:37:58.110Z,101110.75
2022-12-07T01:38:19.777Z,101116.91
2022-12-07T01:38:42.826Z,101117.78
2022-12-07T01:39:07.187Z,101113.41
2022-12-07T01:39:28.839Z,101116.06
2022-12-07T01:39:50.776Z,101111.66
2022-12-07T01:40:13.959Z,101116.13
2022-12-07T01:40:35.527Z,101111.72
2022-12-07T01:40:58.164Z,101091.56
2022-12-07T01:41:22.128Z,101119.66
2022-12-07T01:41:44.803Z,101110.84
2022-12-07T01:42:09.891Z,101112.63
2022-12-07T01:42:31.647Z,101108.22
2022-12-07T01:42:53.256Z,101112.66
2022-12-07T01:43:18.595Z,101112.69
2022-12-07T01:44:25.001Z,101117.13
2022-12-07T01:45:23.172Z,101110.06
2022-12-07T01:45:45.129Z,101104.00
2022-12-07T01:46:07.954Z,101110.13
2022-12-07T01:46:29.575Z,101114.56
2022-12-07T01:46:52.502Z,101106.63
2022-12-07T01:47:14.076Z,101099.59
2022-12-07T01:47:37.028Z,101109.22
2022-12-07T01:47:59.458Z,101111.84
2022-12-07T01:48:25.399Z,101106.56
2022-12-07T01:48:47.261Z,101103.09
2022-12-07T01:49:12.680Z,101108.31
2022-12-07T01:49:38.949Z,101107.41
2022-12-07T01:50:00.962Z,101112.66
2022-12-07T01:50:26.804Z,101105.59
2022-12-07T01:50:51.278Z,101110.88
2022-12-07T01:51:16.204Z,101108.16
2022-12-07T01:51:41.132Z,101109.03
2022-12-07T01:52:11.109Z,101109.94
2022-12-07T01:52:36.146Z,101107.31
2022-12-07T01:53:00.260Z,101108.09
2022-12-07T01:53:25.893Z,101108.97
2022-12-07T01:53:47.611Z,101100.19
2022-12-07T01:54:13.540Z,101107.19
2022-12-07T01:54:35.999Z,101108.09
2022-12-07T01:55:01.121Z,101075.84
2022-12-07T01:55:23.940Z,101113.44
2022-12-07T01:55:50.024Z,101109.91
2022-12-07T01:56:18.098Z,101112.53
2022-12-07T01:56:42.786Z,101101.91
2022-12-07T01:57:10.154Z,101099.22
2022-12-07T01:57:34.338Z,101110.78
2022-12-07T01:57:57.222Z,101107.25
2022-12-07T01:58:19.780Z,101101.03
2022-12-07T01:58:42.406Z,101104.53
2022-12-07T01:59:04.561Z,101102.78
2022-12-07T01:59:27.196Z,101098.38
2022-12-07T01:59:51.754Z,101096.59
2022-12-07T02:00:14.941Z,101094.88
2022-12-07T02:00:36.591Z,101096.56
2022-12-07T02:00:58.471Z,101094.81
2022-12-07T02:01:20.360Z,101104.53
2022-12-07T02:01:43.125Z,101094.88
2022-12-07T02:02:11.190Z,101098.44
2022-12-07T02:02:36.493Z,101094.00
2022-12-07T02:03:05.966Z,101093.13
2022-12-07T02:03:33.259Z,101091.34
2022-12-07T02:03:55.131Z,101093.94
2022-12-07T02:04:16.771Z,101093.13
2022-12-07T02:04:39.426Z,101094.00
2022-12-07T02:05:03.253Z,101084.28
2022-12-07T02:05:26.593Z,101097.50
2022-12-07T02:05:50.171Z,101077.28
2022-12-07T02:06:15.488Z,101078.13
2022-12-07T02:06:38.218Z,101089.56
2022-12-07T02:07:00.233Z,101094.19
2022-12-07T02:07:23.751Z,101083.47
2022-12-07T02:07:47.660Z,101091.41
2022-12-07T02:08:12.861Z,101080.84
2022-12-07T02:08:35.231Z,101086.06
2022-12-07T02:08:56.833Z,101086.88
2022-12-07T02:09:18.714Z,101090.44
2022-12-07T02:09:41.371Z,101073.78
2022-12-07T02:10:13.926Z,101082.47
2022-12-07T02:10:35.868Z,101090.44
2022-12-07T02:10:58.402Z,101084.22
2022-12-07T02:11:21.529Z,101088.78
2022-12-07T02:11:43.269Z,101081.75
2022-12-07T02:12:05.906Z,101082.69
2022-12-07T02:12:29.899Z,101078.28
2022-12-07T02:12:54.099Z,101091.56
2022-12-07T02:13:19.668Z,101084.47
2022-12-07T02:13:44.897Z,101095.03
2022-12-07T02:14:06.752Z,101078.38
2022-12-07T02:14:28.363Z,101086.22
2022-12-07T02:14:51.032Z,101084.41
2022-12-07T02:15:13.253Z,101071.31
2022-12-07T02:15:47.263Z,101089.78
2022-12-07T02:16:26.849Z,101085.38
2022-12-07T02:17:00.503Z,101085.44
2022-12-07T02:17:29.421Z,101097.72
2022-12-07T02:17:59.363Z,101090.81
2022-12-07T02:18:26.481Z,101089.97
2022-12-07T02:19:02.610Z,101088.16
2022-12-07T02:19:53.174Z,101094.41
2022-12-07T02:20:27.739Z,101080.25
2022-12-07T02:20:59.496Z,101086.47
2022-12-07T02:21:29.071Z,101088.16
2022-12-07T02:21:55.001Z,101083.78
2022-12-07T02:22:37.252Z,101089.00
2022-12-07T02:23:22.309Z,101096.91
2022-12-07T02:24:04.938Z,101088.00
2022-12-07T02:24:43.537Z,101088.97
2022-12-07T02:25:14.588Z,101085.38
2022-12-07T02:25:56.062Z,101081.81
2022-12-07T02:26:37.014Z,101083.69
2022-12-07T02:27:35.713Z,101085.53
2022-12-07T02:28:07.611Z,101083.78
2022-12-07T02:28:34.970Z,101088.19
2022-12-07T02:29:12.662Z,101080.25
2022-12-07T02:29:40.981Z,101081.13
2022-12-07T02:30:07.138Z,101087.28
2022-12-07T02:30:34.160Z,101088.16
2022-12-07T02:31:02.309Z,101084.63
2022-12-07T02:31:26.914Z,101088.97
2022-12-07T02:31:56.346Z,101081.97
2022-12-07T02:32:25.160Z,101084.53
2022-12-07T02:33:03.029Z,101081.91
2022-12-07T02:33:29.604Z,101090.69
2022-12-07T02:33:59.805Z,101076.72
2022-12-07T02:34:31.826Z,101084.63
2022-12-07T02:35:03.571Z,101089.00
2022-12-07T02:35:31.658Z,101089.94
2022-12-07T02:35:57.863Z,101084.63
2022-12-07T02:36:26.421Z,101084.63
2022-12-07T02:36:56.078Z,101085.53
2022-12-07T02:37:30.178Z,101089.03
2022-12-07T02:38:02.591Z,101076.75
2022-12-07T02:38:33.135Z,101074.09
2022-12-07T02:39:01.912Z,101082.81
2022-12-07T02:39:29.672Z,101082.81
2022-12-07T02:39:56.450Z,101071.41
2022-12-07T02:40:23.899Z,101065.22
2022-12-07T02:40:54.105Z,101076.63
2022-12-07T02:41:21.143Z,101073.97
2022-12-07T02:41:48.886Z,101067.09
2022-12-07T02:42:16.967Z,101075.81
2022-12-07T02:42:43.908Z,101082.97
2022-12-07T02:43:11.416Z,101071.53
2022-12-07T02:43:39.201Z,101051.41
2022-12-07T02:44:06.769Z,101076.75
2022-12-07T02:44:29.491Z,101069.63
2022-12-07T02:44:52.834Z,101073.97
2022-12-07T02:45:18.482Z,101074.84
2022-12-07T02:45:43.429Z,101069.56
2022-12-07T02:46:09.200Z,101059.13
2022-12-07T02:46:33.596Z,101069.50
2022-12-07T02:47:00.115Z,101066.09
2022-12-07T02:47:26.601Z,101071.25
2022-12-07T02:47:51.904Z,101071.41
2022-12-07T02:48:16.341Z,101055.63
2022-12-07T02:48:40.953Z,101071.31
2022-12-07T02:49:05.302Z,101061.63
2022-12-07T02:49:28.905Z,101071.31
2022-12-07T02:49:51.241Z,101073.97
2022-12-07T02:50:13.069Z,101067.06
2022-12-07T02:50:35.665Z,101076.78
2022-12-07T02:50:57.285Z,101075.03
2022-12-07T02:51:19.055Z,101066.28
2022-12-07T02:51:43.663Z,101055.78
2022-12-07T02:52:05.389Z,101068.94
2022-12-07T02:52:27.940Z,101077.75
2022-12-07T02:52:49.988Z,101072.50
2022-12-07T02:53:29.605Z,101071.59
2022-12-07T02:53:52.179Z,101067.16
2022-12-07T02:54:15.416Z,101070.66
2022-12-07T02:54:37.026Z,101073.28
2022-12-07T02:54:59.153Z,101074.16
2022-12-07T02:55:27.850Z,101076.81
2022-12-07T02:55:49.703Z,101077.66
2022-12-07T02:56:27.267Z,101081.19
2022-12-07T02:56:52.725Z,101061.78
2022-12-07T02:57:30.086Z,101062.59
2022-12-07T02:58:07.236Z,101066.94
2022-12-07T02:58:39.062Z,101073.06
2022-12-07T02:59:15.780Z,101073.97
2022-12-07T02:59:49.745Z,101069.50
2022-12-07T03:00:15.165Z,101072.19
2022-12-07T03:00:49.776Z,101073.97
2022-12-07T03:01:23.916Z,101067.72
2022-12-07T03:01:56.006Z,101076.63
2022-12-07T03:02:25.481Z,101074.78
2022-12-07T03:02:56.093Z,101073.06
2022-12-07T03:03:19.097Z,101055.59
2022-12-07T03:03:47.924Z,101052.09
2022-12-07T03:04:26.770Z,101073.97
2022-12-07T03:05:02.401Z,101070.59
2022-12-07T03:05:45.612Z,101075.91
2022-12-07T03:06:15.928Z,101077.53
2022-12-07T03:06:46.714Z,101074.84
2022-12-07T03:07:16.970Z,101078.38
2022-12-07T03:07:48.002Z,101069.56
2022-12-07T03:08:16.241Z,101078.38
2022-12-07T03:08:52.986Z,101084.56
2022-12-07T03:09:21.116Z,101067.00
2022-12-07T03:09:49.521Z,101083.78
2022-12-07T03:10:20.349Z,101087.28
2022-12-07T03:10:50.101Z,101077.63
2022-12-07T03:11:20.415Z,101082.81
2022-12-07T03:11:50.248Z,101071.44
2022-12-07T03:12:16.061Z,101086.41
2022-12-07T03:12:45.793Z,101064.50
2022-12-07T03:13:13.393Z,101091.56
2022-12-07T03:13:41.341Z,101092.41
2022-12-07T03:14:14.399Z,101081.81
2022-12-07T03:14:41.587Z,101088.00
2022-12-07T03:15:09.475Z,101083.59
2022-12-07T03:15:36.847Z,101078.22
2022-12-07T03:16:04.187Z,101082.63
2022-12-07T03:16:29.620Z,101081.72
2022-12-07T03:16:56.978Z,101088.78
2022-12-07T03:17:24.378Z,101085.28
2022-12-07T03:17:47.322Z,101085.28
2022-12-07T03:18:11.851Z,101090.53
2022-12-07T03:18:38.442Z,101084.38
2022-12-07T03:19:05.152Z,101082.59
2022-12-07T03:19:28.120Z,101075.66
2022-12-07T03:19:52.760Z,101079.97
2022-12-07T03:20:17.850Z,101084.38
2022-12-07T03:20:43.758Z,101082.59
2022-12-07T03:21:12.430Z,101086.13
2022-12-07T03:21:39.722Z,101083.47
2022-12-07T03:22:04.388Z,101091.34
2022-12-07T03:22:30.263Z,101085.16
2022-12-07T03:22:55.648Z,101081.66
2022-12-07T03:23:20.403Z,101080.84
2022-12-07T03:23:46.237Z,101069.47
2022-12-07T03:24:13.990Z,101086.13
2022-12-07T03:24:41.933Z,101086.13
2022-12-07T03:25:07.269Z,101074.69
2022-12-07T03:25:30.287Z,101079.94
2022-12-07T03:26:00.627Z,101081.66
2022-12-07T03:26:26.962Z,101080.78
2022-12-07T03:26:52.675Z,101082.53
2022-12-07T03:27:20.718Z,101079.00
2022-12-07T03:27:46.138Z,101087.00
2022-12-07T03:28:09.600Z,101081.72
2022-12-07T03:28:35.685Z,101088.81
2022-12-07T03:29:03.403Z,101073.91
2022-12-07T03:29:29.378Z,101082.69
2022-12-07T03:29:55.226Z,101082.69
2022-12-07T03:30:20.434Z,101077.41
2022-12-07T03:30:50.012Z,101083.56
2022-12-07T03:31:16.974Z,101081.75
2022-12-07T03:31:44.086Z,101080.88
2022-12-07T03:32:10.970Z,101079.97
2022-12-07T03:32:39.566Z,101077.34
2022-12-07T03:33:07.307Z,101078.22
2022-12-07T03:33:32.456Z,101082.59
2022-12-07T03:34:01.993Z,101071.16
2022-12-07T03:34:29.593Z,101074.66
2022-12-07T03:34:56.940Z,101072.03
2022-12-07T03:35:24.838Z,101075.66
2022-12-07T03:35:51.816Z,101082.63
2022-12-07T03:36:21.640Z,101076.50
2022-12-07T03:36:49.004Z,101079.97
2022-12-07T03:37:17.281Z,101079.09
2022-12-07T03:37:45.195Z,101083.47
2022-12-07T03:38:16.560Z,101080.84
2022-12-07T03:38:44.404Z,101079.97
2022-12-07T03:39:23.189Z,101061.69
2022-12-07T03:39:57.309Z,101076.44
2022-12-07T03:40:24.704Z,101074.66
2022-12-07T03:40:52.349Z,101076.50
2022-12-07T03:41:19.453Z,101079.09
2022-12-07T03:41:45.351Z,101068.56
2022-12-07T03:42:10.635Z,101076.53
2022-12-07T03:42:33.881Z,101071.22
2022-12-07T03:42:56.583Z,101078.31
2022-12-07T03:43:20.695Z,101079.19
2022-12-07T03:43:44.229Z,101071.31
2022-12-07T03:44:07.255Z,101078.41
2022-12-07T03:44:32.150Z,101073.09
2022-12-07T03:44:55.311Z,101072.19
2022-12-07T03:45:17.600Z,101070.38
2022-12-07T03:45:42.306Z,101076.53
2022-12-07T03:46:17.573Z,101078.31
2022-12-07T03:46:45.230Z,101068.69
2022-12-07T03:47:14.542Z,101065.06
2022-12-07T03:47:41.910Z,101076.53
2022-12-07T03:48:09.023Z,101050.31
2022-12-07T03:48:38.171Z,101074.78
2022-12-07T03:49:09.696Z,101079.19
2022-12-07T03:49:38.671Z,101077.38
2022-12-07T03:50:07.291Z,101074.78
2022-12-07T03:50:38.896Z,101079.19
2022-12-07T03:51:08.871Z,101081.91
2022-12-07T03:51:38.807Z,101081.03
2022-12-07T03:52:07.717Z,101074.88
2022-12-07T03:52:36.834Z,101074.84
2022-12-07T03:53:05.729Z,101072.09
2022-12-07T03:53:35.521Z,101078.22
2022-12-07T03:54:04.317Z,101071.16
2022-12-07T03:54:31.059Z,101077.31
2022-12-07T03:54:57.961Z,101080.84
2022-12-07T03:55:26.069Z,101074.66
2022-12-07T03:55:49.440Z,101079.97
2022-12-07T03:56:12.800Z,101076.38
2022-12-07T03:56:35.546Z,101069.38
2022-12-07T03:57:00.268Z,101073.72
2022-12-07T03:57:23.814Z,101076.44
2022-12-07T03:57:48.490Z,101077.34
2022-12-07T03:58:12.757Z,101080.84
2022-12-07T03:58:36.566Z,101076.44
2022-12-07T03:58:58.209Z,101076.38
2022-12-07T03:59:20.798Z,101078.16
2022-12-07T03:59:44.382Z,101078.19
2022-12-07T04:00:09.552Z,101068.41
2022-12-07T04:00:34.118Z,101078.16
2022-12-07T04:00:56.543Z,101074.59
2022-12-07T04:01:19.303Z,101079.94
2022-12-07T04:01:44.011Z,101078.13
2022-12-07T04:02:08.163Z,101079.97
2022-12-07T04:02:30.391Z,101079.16
2022-12-07T04:02:53.837Z,101065.94
2022-12-07T04:03:16.727Z,101074.75
2022-12-07T04:03:38.398Z,101069.47
2022-12-07T04:03:59.992Z,101076.50
2022-12-07T04:04:21.769Z,101075.66
2022-12-07T04:04:45.104Z,101082.69
2022-12-07T04:05:07.472Z,101075.56
2022-12-07T04:05:30.084Z,101074.66
2022-12-07T04:05:51.770Z,101077.31
2022-12-07T04:06:13.574Z,101075.56
2022-12-07T04:06:36.240Z,101073.03
2022-12-07T04:06:57.875Z,101082.81
2022-12-07T04:07:19.690Z,101072.22
2022-12-07T04:07:42.157Z,101060.00
2022-12-07T04:08:05.324Z,101080.94
2022-12-07T04:08:27.073Z,101082.72
2022-12-07T04:08:48.675Z,101081.84
2022-12-07T04:09:10.281Z,101079.16
2022-12-07T04:09:32.090Z,101068.66
2022-12-07T04:09:55.760Z,101083.50
2022-12-07T04:10:17.897Z,101080.03
2022-12-07T04:10:39.495Z,101079.06
2022-12-07T04:11:01.062Z,101077.38
2022-12-07T04:11:23.667Z,101084.38
2022-12-07T04:11:45.454Z,101079.09
2022-12-07T04:12:07.585Z,101079.06
2022-12-07T04:12:29.197Z,101080.84
2022-12-07T04:12:51.775Z,101077.34
2022-12-07T04:13:13.510Z,101068.66
2022-12-07T04:13:55.270Z,101086.16
2022-12-07T04:14:19.665Z,101085.25
2022-12-07T04:14:42.249Z,101084.38
2022-12-07T04:15:06.695Z,101083.47
2022-12-07T04:15:28.377Z,101088.75
2022-12-07T04:15:50.034Z,101090.53
2022-12-07T04:16:12.708Z,101083.47
2022-12-07T04:16:37.328Z,101083.47
2022-12-07T04:17:01.268Z,101087.03
2022-12-07T04:17:22.830Z,101089.66
2022-12-07T04:17:45.460Z,101088.81
2022-12-07T04:18:07.762Z,101086.25
2022-12-07T04:18:29.358Z,101082.69
2022-12-07T04:18:51.000Z,101087.06
2022-12-07T04:19:12.653Z,101082.59
2022-12-07T04:19:36.241Z,101090.56
2022-12-07T04:19:58.050Z,101080.84
2022-12-07T04:20:19.733Z,101080.78
2022-12-07T04:20:42.177Z,101083.41
2022-12-07T04:21:03.910Z,101079.00
2022-12-07T04:21:26.466Z,101066.81
2022-12-07T04:21:48.279Z,101090.44
2022-12-07T04:22:09.948Z,101085.19
2022-12-07T04:22:32.676Z,101085.13
2022-12-07T04:22:54.259Z,101085.19
2022-12-07T04:23:15.865Z,101083.41
2022-12-07T04:23:37.433Z,101080.75
2022-12-07T04:23:59.996Z,101082.53
2022-12-07T04:24:22.340Z,101080.78
2022-12-07T04:24:43.930Z,101080.75
2022-12-07T04:25:06.677Z,101085.19
2022-12-07T04:25:29.262Z,101079.88
2022-12-07T04:25:50.807Z,101071.22
2022-12-07T04:26:12.431Z,101085.19
2022-12-07T04:26:34.392Z,101075.56
2022-12-07T04:26:56.109Z,101079.97
2022-12-07T04:27:17.712Z,101072.91
2022-12-07T04:27:40.381Z,101074.66
2022-12-07T04:28:02.017Z,101078.09
2022-12-07T04:28:23.587Z,101076.34
2022-12-07T04:28:45.107Z,101079.88
2022-12-07T04:29:08.051Z,101078.16
2022-12-07T04:29:29.735Z,101079.00
2022-12-07T04:29:51.344Z,101073.78
2022-12-07T04:30:14.638Z,101042.38
2022-12-07T04:30:37.265Z,101073.72
2022-12-07T04:30:58.909Z,101079.94
2022-12-07T04:31:20.570Z,101082.53
2022-12-07T04:31:42.658Z,101078.16
2022-12-07T04:32:04.391Z,101073.72
2022-12-07T04:32:27.015Z,101066.78
2022-12-07T04:32:48.655Z,101074.56
2022-12-07T04:33:10.309Z,101071.03
2022-12-07T04:33:31.947Z,101074.69
2022-12-07T04:33:54.506Z,101070.34
2022-12-07T04:34:17.035Z,101069.44
2022-12-07T04:34:38.676Z,101072.09
2022-12-07T04:35:00.344Z,101076.50
2022-12-07T04:35:22.997Z,101074.69
2022-12-07T04:35:44.808Z,101072.94
2022-12-07T04:36:07.067Z,101070.22
2022-12-07T04:36:28.701Z,101077.28
2022-12-07T04:36:51.598Z,101078.22
2022-12-07T04:37:13.212Z,101069.44
2022-12-07T04:37:34.902Z,101076.50
2022-12-07T04:37:57.465Z,101069.47
2022-12-07T04:38:19.078Z,101080.94
2022-12-07T04:38:40.654Z,101076.50
2022-12-07T04:39:02.679Z,101069.38
2022-12-07T04:39:26.605Z,101071.13
2022-12-07T04:39:49.264Z,101072.09
2022-12-07T04:40:12.181Z,101069.44
2022-12-07T04:40:33.873Z,101065.88
2022-12-07T04:40:55.440Z,101076.38
2022-12-07T04:41:17.077Z,101061.44
2022-12-07T04:41:39.661Z,101074.66
2022-12-07T04:42:02.393Z,101064.16
2022-12-07T04:42:24.014Z,101069.34